sensor_id;sensor_type;location;lat;lon;timestamp;P1;durP1;ratioP1;P2;durP2;ratioP2
53833;SDS011;39735;51.432;5.482;2023-02-18T00:01:00;34.20;;;22.98;;
53833;SDS011;39735;51.432;5.482;2023-02-18T00:03:28;27.88;;;22.25;;
53833;SDS011;39735;51.432;5.482;2023-02-18T00:05:54;29.27;;;21.02;;
53833;SDS011;39735;51.432;5.482;2023-02-18T00:08:19;38.60;;;23.17;;
53833;SDS011;39735;51.432;5.482;2023-02-18T00:10:45;40.70;;;24.65;;
53833;SDS011;39735;51.432;5.482;2023-02-18T00:13:10;43.47;;;24.70;;
53833;SDS011;39735;51.432;5.482;2023-02-18T00:15:36;32.65;;;22.83;;
53833;SDS011;39735;51.432;5.482;2023-02-18T00:18:02;42.42;;;24.38;;
53833;SDS011;39735;51.432;5.482;2023-02-18T00:20:28;39.60;;;23.40;;
53833;SDS011;39735;51.432;5.482;2023-02-18T00:22:53;36.53;;;23.05;;
53833;SDS011;39735;51.432;5.482;2023-02-18T00:25:19;46.25;;;24.50;;
53833;SDS011;39735;51.432;5.482;2023-02-18T00:27:44;43.17;;;22.50;;
53833;SDS011;39735;51.432;5.482;2023-02-18T00:30:09;42.58;;;21.92;;
53833;SDS011;39735;51.432;5.482;2023-02-18T00:32:35;35.90;;;22.60;;
53833;SDS011;39735;51.432;5.482;2023-02-18T00:35:00;32.78;;;22.65;;
53833;SDS011;39735;51.432;5.482;2023-02-18T00:37:26;32.05;;;22.33;;
53833;SDS011;39735;51.432;5.482;2023-02-18T00:39:51;32.45;;;21.98;;
53833;SDS011;39735;51.432;5.482;2023-02-18T00:42:17;52.30;;;22.25;;
53833;SDS011;39735;51.432;5.482;2023-02-18T00:44:42;43.05;;;21.65;;
53833;SDS011;39735;51.432;5.482;2023-02-18T00:47:07;32.58;;;20.42;;
53833;SDS011;39735;51.432;5.482;2023-02-18T00:49:33;45.65;;;23.17;;
53833;SDS011;39735;51.432;5.482;2023-02-18T00:51:58;45.28;;;21.13;;
53833;SDS011;39735;51.432;5.482;2023-02-18T00:54:24;37.60;;;20.50;;
53833;SDS011;39735;51.432;5.482;2023-02-18T00:56:49;38.10;;;20.73;;
53833;SDS011;39735;51.432;5.482;2023-02-18T00:59:15;37.55;;;19.92;;
53833;SDS011;39735;51.432;5.482;2023-02-18T01:01:40;28.40;;;18.83;;
53833;SDS011;39735;51.432;5.482;2023-02-18T01:04:05;33.30;;;19.38;;
53833;SDS011;39735;51.432;5.482;2023-02-18T01:06:31;30.30;;;20.52;;
53833;SDS011;39735;51.432;5.482;2023-02-18T01:08:56;26.70;;;20.13;;
53833;SDS011;39735;51.432;5.482;2023-02-18T01:11:22;25.35;;;18.00;;
53833;SDS011;39735;51.432;5.482;2023-02-18T01:13:47;39.80;;;18.15;;
53833;SDS011;39735;51.432;5.482;2023-02-18T01:16:12;34.15;;;18.98;;
53833;SDS011;39735;51.432;5.482;2023-02-18T01:18:38;29.52;;;19.98;;
53833;SDS011;39735;51.432;5.482;2023-02-18T01:21:04;33.00;;;17.42;;
53833;SDS011;39735;51.432;5.482;2023-02-18T01:23:32;25.50;;;15.98;;
53833;SDS011;39735;51.432;5.482;2023-02-18T01:25:58;19.42;;;13.50;;
53833;SDS011;39735;51.432;5.482;2023-02-18T01:28:23;26.35;;;15.85;;
53833;SDS011;39735;51.432;5.482;2023-02-18T01:30:50;24.58;;;16.25;;
53833;SDS011;39735;51.432;5.482;2023-02-18T01:33:16;12.75;;;11.48;;
53833;SDS011;39735;51.432;5.482;2023-02-18T01:35:42;24.08;;;15.35;;
53833;SDS011;39735;51.432;5.482;2023-02-18T01:38:08;17.63;;;13.75;;
53833;SDS011;39735;51.432;5.482;2023-02-18T01:40:34;15.63;;;12.27;;
53833;SDS011;39735;51.432;5.482;2023-02-18T01:43:00;17.38;;;13.38;;
53833;SDS011;39735;51.432;5.482;2023-02-18T01:48:08;18.13;;;14.00;;
53833;SDS011;39735;51.432;5.482;2023-02-18T01:50:37;17.42;;;14.30;;
53833;SDS011;39735;51.432;5.482;2023-02-18T01:53:05;20.95;;;16.02;;
53833;SDS011;39735;51.432;5.482;2023-02-18T01:55:30;17.55;;;14.68;;
53833;SDS011;39735;51.432;5.482;2023-02-18T01:57:57;25.42;;;16.83;;
53833;SDS011;39735;51.432;5.482;2023-02-18T02:00:22;27.85;;;16.05;;
53833;SDS011;39735;51.432;5.482;2023-02-18T02:02:49;24.45;;;16.52;;
53833;SDS011;39735;51.432;5.482;2023-02-18T02:05:16;22.30;;;16.63;;
53833;SDS011;39735;51.432;5.482;2023-02-18T02:07:42;26.25;;;17.15;;
53833;SDS011;39735;51.432;5.482;2023-02-18T02:10:09;27.02;;;17.52;;
53833;SDS011;39735;51.432;5.482;2023-02-18T02:20:43;25.42;;;16.92;;
53833;SDS011;39735;51.432;5.482;2023-02-18T02:23:17;22.92;;;17.27;;
53833;SDS011;39735;51.432;5.482;2023-02-18T02:31:31;24.38;;;16.70;;
53833;SDS011;39735;51.432;5.482;2023-02-18T02:34:29;19.67;;;15.80;;
53833;SDS011;39735;51.432;5.482;2023-02-18T02:37:15;18.88;;;16.55;;
53833;SDS011;39735;51.432;5.482;2023-02-18T02:42:42;23.70;;;15.68;;
53833;SDS011;39735;51.432;5.482;2023-02-18T02:45:32;20.02;;;16.05;;
53833;SDS011;39735;51.432;5.482;2023-02-18T02:48:06;20.10;;;15.85;;
53833;SDS011;39735;51.432;5.482;2023-02-18T02:53:05;13.07;;;11.57;;
53833;SDS011;39735;51.432;5.482;2023-02-18T02:55:38;15.37;;;12.67;;
53833;SDS011;39735;51.432;5.482;2023-02-18T02:58:03;17.25;;;13.18;;
53833;SDS011;39735;51.432;5.482;2023-02-18T03:09:16;11.95;;;10.88;;
53833;SDS011;39735;51.432;5.482;2023-02-18T03:17:34;12.77;;;10.18;;
53833;SDS011;39735;51.432;5.482;2023-02-18T03:20:05;12.07;;;9.85;;
53833;SDS011;39735;51.432;5.482;2023-02-18T03:22:36;14.30;;;12.07;;
53833;SDS011;39735;51.432;5.482;2023-02-18T03:25:06;9.98;;;9.00;;
53833;SDS011;39735;51.432;5.482;2023-02-18T03:27:55;12.27;;;11.00;;
53833;SDS011;39735;51.432;5.482;2023-02-18T03:30:26;12.48;;;11.05;;
53833;SDS011;39735;51.432;5.482;2023-02-18T03:32:55;14.50;;;11.27;;
53833;SDS011;39735;51.432;5.482;2023-02-18T03:35:23;16.55;;;10.10;;
53833;SDS011;39735;51.432;5.482;2023-02-18T03:37:50;13.32;;;9.07;;
53833;SDS011;39735;51.432;5.482;2023-02-18T03:40:18;9.68;;;8.88;;
53833;SDS011;39735;51.432;5.482;2023-02-18T03:42:44;7.75;;;7.05;;
53833;SDS011;39735;51.432;5.482;2023-02-18T03:45:09;9.02;;;7.65;;
53833;SDS011;39735;51.432;5.482;2023-02-18T03:47:35;8.10;;;7.40;;
53833;SDS011;39735;51.432;5.482;2023-02-18T03:50:00;6.95;;;6.45;;
53833;SDS011;39735;51.432;5.482;2023-02-18T03:52:26;7.82;;;7.10;;
53833;SDS011;39735;51.432;5.482;2023-02-18T03:54:51;7.32;;;6.50;;
53833;SDS011;39735;51.432;5.482;2023-02-18T03:57:17;5.63;;;5.15;;
53833;SDS011;39735;51.432;5.482;2023-02-18T03:59:42;7.03;;;6.32;;
53833;SDS011;39735;51.432;5.482;2023-02-18T04:02:07;6.38;;;5.75;;
53833;SDS011;39735;51.432;5.482;2023-02-18T04:04:33;11.30;;;5.82;;
53833;SDS011;39735;51.432;5.482;2023-02-18T04:06:58;4.53;;;4.13;;
53833;SDS011;39735;51.432;5.482;2023-02-18T04:09:23;4.40;;;4.00;;
53833;SDS011;39735;51.432;5.482;2023-02-18T04:11:49;4.22;;;4.00;;
53833;SDS011;39735;51.432;5.482;2023-02-18T04:14:14;3.78;;;3.58;;
53833;SDS011;39735;51.432;5.482;2023-02-18T04:16:40;3.58;;;3.30;;
53833;SDS011;39735;51.432;5.482;2023-02-18T04:19:05;5.22;;;3.88;;
53833;SDS011;39735;51.432;5.482;2023-02-18T04:21:31;3.38;;;3.28;;
53833;SDS011;39735;51.432;5.482;2023-02-18T04:23:57;4.05;;;3.88;;
53833;SDS011;39735;51.432;5.482;2023-02-18T04:26:22;3.97;;;2.97;;
53833;SDS011;39735;51.432;5.482;2023-02-18T04:28:48;2.60;;;2.50;;
53833;SDS011;39735;51.432;5.482;2023-02-18T04:31:13;3.10;;;2.90;;
53833;SDS011;39735;51.432;5.482;2023-02-18T04:33:39;1.83;;;1.73;;
53833;SDS011;39735;51.432;5.482;2023-02-18T04:36:05;3.70;;;2.80;;
53833;SDS011;39735;51.432;5.482;2023-02-18T04:38:30;2.92;;;2.83;;
53833;SDS011;39735;51.432;5.482;2023-02-18T04:40:56;2.92;;;2.72;;
53833;SDS011;39735;51.432;5.482;2023-02-18T04:43:21;2.20;;;2.17;;
53833;SDS011;39735;51.432;5.482;2023-02-18T04:45:47;1.90;;;1.60;;
53833;SDS011;39735;51.432;5.482;2023-02-18T04:48:12;2.03;;;1.95;;
53833;SDS011;39735;51.432;5.482;2023-02-18T04:50:37;3.15;;;2.95;;
53833;SDS011;39735;51.432;5.482;2023-02-18T04:53:03;1.77;;;1.67;;
53833;SDS011;39735;51.432;5.482;2023-02-18T04:55:28;6.40;;;1.85;;
53833;SDS011;39735;51.432;5.482;2023-02-18T04:57:54;2.47;;;2.38;;
53833;SDS011;39735;51.432;5.482;2023-02-18T05:00:19;1.65;;;1.65;;
53833;SDS011;39735;51.432;5.482;2023-02-18T05:02:45;3.15;;;2.95;;
53833;SDS011;39735;51.432;5.482;2023-02-18T05:05:11;1.98;;;1.88;;
53833;SDS011;39735;51.432;5.482;2023-02-18T05:07:37;3.53;;;2.72;;
53833;SDS011;39735;51.432;5.482;2023-02-18T05:10:03;1.98;;;1.77;;
53833;SDS011;39735;51.432;5.482;2023-02-18T05:12:29;1.88;;;1.83;;
53833;SDS011;39735;51.432;5.482;2023-02-18T05:14:54;2.05;;;1.95;;
53833;SDS011;39735;51.432;5.482;2023-02-18T05:17:19;1.77;;;1.77;;
53833;SDS011;39735;51.432;5.482;2023-02-18T05:19:45;1.98;;;1.73;;
53833;SDS011;39735;51.432;5.482;2023-02-18T05:22:10;2.20;;;2.20;;
53833;SDS011;39735;51.432;5.482;2023-02-18T05:24:36;2.05;;;1.95;;
53833;SDS011;39735;51.432;5.482;2023-02-18T05:27:01;1.65;;;1.65;;
53833;SDS011;39735;51.432;5.482;2023-02-18T05:29:26;2.80;;;1.60;;
53833;SDS011;39735;51.432;5.482;2023-02-18T05:31:52;1.27;;;1.27;;
53833;SDS011;39735;51.432;5.482;2023-02-18T05:34:17;2.63;;;2.55;;
53833;SDS011;39735;51.432;5.482;2023-02-18T05:36:43;4.68;;;2.42;;
53833;SDS011;39735;51.432;5.482;2023-02-18T05:39:08;2.45;;;2.35;;
53833;SDS011;39735;51.432;5.482;2023-02-18T05:41:33;1.38;;;1.38;;
53833;SDS011;39735;51.432;5.482;2023-02-18T05:43:59;2.22;;;2.08;;
53833;SDS011;39735;51.432;5.482;2023-02-18T05:46:43;4.38;;;2.42;;
53833;SDS011;39735;51.432;5.482;2023-02-18T05:49:08;2.45;;;2.30;;
53833;SDS011;39735;51.432;5.482;2023-02-18T05:51:34;3.22;;;2.20;;
53833;SDS011;39735;51.432;5.482;2023-02-18T05:53:59;2.53;;;2.45;;
53833;SDS011;39735;51.432;5.482;2023-02-18T05:56:24;3.35;;;3.25;;
53833;SDS011;39735;51.432;5.482;2023-02-18T05:58:50;2.60;;;2.42;;
53833;SDS011;39735;51.432;5.482;2023-02-18T06:01:15;2.60;;;2.47;;
53833;SDS011;39735;51.432;5.482;2023-02-18T06:03:41;2.67;;;2.58;;
53833;SDS011;39735;51.432;5.482;2023-02-18T06:06:06;5.13;;;3.45;;
53833;SDS011;39735;51.432;5.482;2023-02-18T06:08:31;2.35;;;2.25;;
53833;SDS011;39735;51.432;5.482;2023-02-18T06:10:57;3.33;;;3.13;;
53833;SDS011;39735;51.432;5.482;2023-02-18T06:13:22;2.35;;;2.20;;
53833;SDS011;39735;51.432;5.482;2023-02-18T06:15:51;3.08;;;2.97;;
53833;SDS011;39735;51.432;5.482;2023-02-18T06:18:17;3.95;;;3.50;;
53833;SDS011;39735;51.432;5.482;2023-02-18T06:20:43;3.15;;;3.05;;
53833;SDS011;39735;51.432;5.482;2023-02-18T06:23:08;3.25;;;3.15;;
53833;SDS011;39735;51.432;5.482;2023-02-18T06:25:33;4.03;;;3.85;;
53833;SDS011;39735;51.432;5.482;2023-02-18T06:27:59;7.15;;;3.72;;
53833;SDS011;39735;51.432;5.482;2023-02-18T06:30:24;2.70;;;2.70;;
53833;SDS011;39735;51.432;5.482;2023-02-18T06:32:49;8.60;;;3.55;;
53833;SDS011;39735;51.432;5.482;2023-02-18T06:35:15;4.40;;;4.10;;
53833;SDS011;39735;51.432;5.482;2023-02-18T06:37:40;3.60;;;3.50;;
53833;SDS011;39735;51.432;5.482;2023-02-18T06:40:06;3.17;;;2.97;;
53833;SDS011;39735;51.432;5.482;2023-02-18T06:42:33;2.97;;;2.88;;
53833;SDS011;39735;51.432;5.482;2023-02-18T06:44:58;3.50;;;3.38;;
53833;SDS011;39735;51.432;5.482;2023-02-18T06:47:24;2.33;;;2.25;;
53833;SDS011;39735;51.432;5.482;2023-02-18T06:49:49;2.47;;;2.38;;
53833;SDS011;39735;51.432;5.482;2023-02-18T06:52:15;2.60;;;2.50;;
53833;SDS011;39735;51.432;5.482;2023-02-18T06:54:40;2.92;;;2.92;;
53833;SDS011;39735;51.432;5.482;2023-02-18T06:57:06;3.50;;;3.30;;
53833;SDS011;39735;51.432;5.482;2023-02-18T06:59:31;2.35;;;2.30;;
53833;SDS011;39735;51.432;5.482;2023-02-18T07:01:57;12.40;;;3.60;;
53833;SDS011;39735;51.432;5.482;2023-02-18T07:04:22;4.43;;;4.10;;
53833;SDS011;39735;51.432;5.482;2023-02-18T07:06:47;6.60;;;3.45;;
53833;SDS011;39735;51.432;5.482;2023-02-18T07:09:13;3.65;;;3.50;;
53833;SDS011;39735;51.432;5.482;2023-02-18T07:11:38;3.13;;;3.03;;
53833;SDS011;39735;51.432;5.482;2023-02-18T07:14:04;4.68;;;4.10;;
53833;SDS011;39735;51.432;5.482;2023-02-18T07:16:29;4.05;;;3.72;;
53833;SDS011;39735;51.432;5.482;2023-02-18T07:18:54;2.60;;;2.50;;
53833;SDS011;39735;51.432;5.482;2023-02-18T07:21:20;14.02;;;4.22;;
53833;SDS011;39735;51.432;5.482;2023-02-18T07:23:45;16.50;;;3.97;;
53833;SDS011;39735;51.432;5.482;2023-02-18T07:26:12;38.72;;;6.03;;
53833;SDS011;39735;51.432;5.482;2023-02-18T07:28:38;7.57;;;3.05;;
53833;SDS011;39735;51.432;5.482;2023-02-18T07:31:04;12.40;;;3.38;;
53833;SDS011;39735;51.432;5.482;2023-02-18T07:33:30;12.18;;;2.80;;
53833;SDS011;39735;51.432;5.482;2023-02-18T07:35:56;9.70;;;2.50;;
53833;SDS011;39735;51.432;5.482;2023-02-18T07:38:22;13.63;;;3.08;;
53833;SDS011;39735;51.432;5.482;2023-02-18T07:40:48;13.70;;;3.33;;
53833;SDS011;39735;51.432;5.482;2023-02-18T07:43:14;16.80;;;4.32;;
53833;SDS011;39735;51.432;5.482;2023-02-18T07:45:39;25.83;;;4.45;;
53833;SDS011;39735;51.432;5.482;2023-02-18T07:48:05;18.88;;;3.75;;
53833;SDS011;39735;51.432;5.482;2023-02-18T07:50:31;13.30;;;3.78;;
53833;SDS011;39735;51.432;5.482;2023-02-18T07:52:59;23.88;;;3.40;;
53833;SDS011;39735;51.432;5.482;2023-02-18T07:55:25;21.92;;;4.28;;
53833;SDS011;39735;51.432;5.482;2023-02-18T07:58:13;28.77;;;3.78;;
53833;SDS011;39735;51.432;5.482;2023-02-18T08:00:39;24.48;;;3.35;;
53833;SDS011;39735;51.432;5.482;2023-02-18T08:03:04;23.23;;;4.25;;
53833;SDS011;39735;51.432;5.482;2023-02-18T08:05:30;25.60;;;4.55;;
53833;SDS011;39735;51.432;5.482;2023-02-18T08:07:55;46.50;;;6.30;;
53833;SDS011;39735;51.432;5.482;2023-02-18T08:10:21;28.25;;;2.72;;
53833;SDS011;39735;51.432;5.482;2023-02-18T08:12:46;24.83;;;4.28;;
53833;SDS011;39735;51.432;5.482;2023-02-18T08:15:12;55.00;;;9.32;;
53833;SDS011;39735;51.432;5.482;2023-02-18T08:17:38;29.67;;;4.95;;
53833;SDS011;39735;51.432;5.482;2023-02-18T08:20:03;28.85;;;5.30;;
53833;SDS011;39735;51.432;5.482;2023-02-18T08:22:29;33.25;;;6.55;;
53833;SDS011;39735;51.432;5.482;2023-02-18T08:24:55;25.75;;;3.85;;
53833;SDS011;39735;51.432;5.482;2023-02-18T08:27:20;26.85;;;4.25;;
53833;SDS011;39735;51.432;5.482;2023-02-18T08:29:46;39.78;;;5.95;;
53833;SDS011;39735;51.432;5.482;2023-02-18T08:32:11;38.80;;;6.35;;
53833;SDS011;39735;51.432;5.482;2023-02-18T08:34:37;16.35;;;4.22;;
53833;SDS011;39735;51.432;5.482;2023-02-18T08:37:03;23.23;;;7.38;;
53833;SDS011;39735;51.432;5.482;2023-02-18T08:39:32;20.48;;;6.03;;
53833;SDS011;39735;51.432;5.482;2023-02-18T08:42:01;27.70;;;5.45;;
53833;SDS011;39735;51.432;5.482;2023-02-18T08:44:26;25.52;;;4.45;;
53833;SDS011;39735;51.432;5.482;2023-02-18T08:46:52;34.05;;;4.65;;
53833;SDS011;39735;51.432;5.482;2023-02-18T08:49:17;20.17;;;4.72;;
53833;SDS011;39735;51.432;5.482;2023-02-18T08:51:45;24.00;;;5.22;;
53833;SDS011;39735;51.432;5.482;2023-02-18T08:54:11;21.25;;;5.20;;
53833;SDS011;39735;51.432;5.482;2023-02-18T08:56:36;51.65;;;5.95;;
53833;SDS011;39735;51.432;5.482;2023-02-18T08:59:02;30.55;;;4.63;;
53833;SDS011;39735;51.432;5.482;2023-02-18T09:01:28;13.13;;;4.13;;
53833;SDS011;39735;51.432;5.482;2023-02-18T09:03:53;32.47;;;5.57;;
53833;SDS011;39735;51.432;5.482;2023-02-18T09:06:18;22.65;;;4.38;;
53833;SDS011;39735;51.432;5.482;2023-02-18T09:08:44;22.58;;;4.93;;
53833;SDS011;39735;51.432;5.482;2023-02-18T09:11:09;26.83;;;6.05;;
53833;SDS011;39735;51.432;5.482;2023-02-18T09:13:35;28.38;;;4.82;;
53833;SDS011;39735;51.432;5.482;2023-02-18T09:16:02;16.20;;;2.90;;
53833;SDS011;39735;51.432;5.482;2023-02-18T09:18:30;18.58;;;3.55;;
53833;SDS011;39735;51.432;5.482;2023-02-18T09:20:56;40.55;;;5.40;;
53833;SDS011;39735;51.432;5.482;2023-02-18T09:23:24;29.88;;;4.30;;
53833;SDS011;39735;51.432;5.482;2023-02-18T09:25:50;25.17;;;3.85;;
53833;SDS011;39735;51.432;5.482;2023-02-18T09:28:15;21.65;;;5.25;;
53833;SDS011;39735;51.432;5.482;2023-02-18T09:30:40;23.70;;;3.85;;
53833;SDS011;39735;51.432;5.482;2023-02-18T09:33:06;40.15;;;6.30;;
53833;SDS011;39735;51.432;5.482;2023-02-18T09:35:31;25.60;;;3.25;;
53833;SDS011;39735;51.432;5.482;2023-02-18T09:37:57;20.48;;;3.15;;
53833;SDS011;39735;51.432;5.482;2023-02-18T09:40:23;14.43;;;3.40;;
53833;SDS011;39735;51.432;5.482;2023-02-18T09:42:51;27.52;;;5.97;;
53833;SDS011;39735;51.432;5.482;2023-02-18T09:45:19;28.25;;;4.30;;
53833;SDS011;39735;51.432;5.482;2023-02-18T09:47:45;18.67;;;2.97;;
53833;SDS011;39735;51.432;5.482;2023-02-18T09:50:13;16.35;;;4.07;;
53833;SDS011;39735;51.432;5.482;2023-02-18T09:52:41;20.10;;;3.53;;
53833;SDS011;39735;51.432;5.482;2023-02-18T09:57:47;25.17;;;4.97;;
53833;SDS011;39735;51.432;5.482;2023-02-18T10:00:16;45.83;;;5.55;;
53833;SDS011;39735;51.432;5.482;2023-02-18T10:02:49;33.75;;;4.03;;
53833;SDS011;39735;51.432;5.482;2023-02-18T10:05:29;29.73;;;3.40;;
53833;SDS011;39735;51.432;5.482;2023-02-18T10:07:57;28.95;;;3.25;;
53833;SDS011;39735;51.432;5.482;2023-02-18T10:10:39;28.13;;;4.40;;
53833;SDS011;39735;51.432;5.482;2023-02-18T10:13:10;28.13;;;5.65;;
53833;SDS011;39735;51.432;5.482;2023-02-18T10:15:38;28.40;;;4.25;;
53833;SDS011;39735;51.432;5.482;2023-02-18T10:18:03;25.02;;;4.07;;
53833;SDS011;39735;51.432;5.482;2023-02-18T10:20:31;27.05;;;4.07;;
53833;SDS011;39735;51.432;5.482;2023-02-18T10:22:57;43.42;;;4.30;;
53833;SDS011;39735;51.432;5.482;2023-02-18T10:25:24;17.90;;;3.42;;
53833;SDS011;39735;51.432;5.482;2023-02-18T10:27:51;35.75;;;4.90;;
53833;SDS011;39735;51.432;5.482;2023-02-18T10:32:57;28.83;;;5.30;;
53833;SDS011;39735;51.432;5.482;2023-02-18T10:36:42;21.77;;;4.18;;
53833;SDS011;39735;51.432;5.482;2023-02-18T10:41:19;13.65;;;3.55;;
53833;SDS011;39735;51.432;5.482;2023-02-18T10:44:11;20.27;;;5.55;;
53833;SDS011;39735;51.432;5.482;2023-02-18T10:52:26;15.32;;;4.75;;
53833;SDS011;39735;51.432;5.482;2023-02-18T10:55:08;18.25;;;5.93;;
53833;SDS011;39735;51.432;5.482;2023-02-18T11:00:16;32.85;;;6.20;;
53833;SDS011;39735;51.432;5.482;2023-02-18T11:03:05;39.05;;;7.90;;
53833;SDS011;39735;51.432;5.482;2023-02-18T11:05:34;18.02;;;8.45;;
53833;SDS011;39735;51.432;5.482;2023-02-18T11:07:59;30.92;;;9.30;;
53833;SDS011;39735;51.432;5.482;2023-02-18T11:10:30;18.58;;;7.47;;
53833;SDS011;39735;51.432;5.482;2023-02-18T11:15:27;16.23;;;7.97;;
53833;SDS011;39735;51.432;5.482;2023-02-18T11:17:57;18.45;;;10.07;;
53833;SDS011;39735;51.432;5.482;2023-02-18T11:20:37;19.85;;;7.88;;
53833;SDS011;39735;51.432;5.482;2023-02-18T11:25:35;20.83;;;6.95;;
53833;SDS011;39735;51.432;5.482;2023-02-18T11:28:26;25.23;;;8.52;;
53833;SDS011;39735;51.432;5.482;2023-02-18T11:31:07;18.58;;;9.18;;
53833;SDS011;39735;51.432;5.482;2023-02-18T11:33:41;26.27;;;9.68;;
53833;SDS011;39735;51.432;5.482;2023-02-18T11:36:18;12.90;;;6.47;;
53833;SDS011;39735;51.432;5.482;2023-02-18T11:38:54;28.23;;;8.75;;
53833;SDS011;39735;51.432;5.482;2023-02-18T11:41:42;27.48;;;8.73;;
53833;SDS011;39735;51.432;5.482;2023-02-18T11:44:17;22.50;;;8.23;;
53833;SDS011;39735;51.432;5.482;2023-02-18T11:46:56;30.23;;;8.85;;
53833;SDS011;39735;51.432;5.482;2023-02-18T11:49:23;19.83;;;8.20;;
53833;SDS011;39735;51.432;5.482;2023-02-18T11:51:49;31.17;;;8.32;;
53833;SDS011;39735;51.432;5.482;2023-02-18T11:54:28;14.35;;;6.82;;
53833;SDS011;39735;51.432;5.482;2023-02-18T11:59:22;23.23;;;4.68;;
53833;SDS011;39735;51.432;5.482;2023-02-18T12:01:52;30.23;;;7.55;;
53833;SDS011;39735;51.432;5.482;2023-02-18T12:04:29;30.58;;;6.57;;
53833;SDS011;39735;51.432;5.482;2023-02-18T12:09:34;20.35;;;5.63;;
53833;SDS011;39735;51.432;5.482;2023-02-18T12:12:04;18.55;;;6.15;;
53833;SDS011;39735;51.432;5.482;2023-02-18T12:14:31;24.70;;;5.10;;
53833;SDS011;39735;51.432;5.482;2023-02-18T12:28:55;25.52;;;6.65;;
53833;SDS011;39735;51.432;5.482;2023-02-18T12:34:31;20.42;;;4.30;;
53833;SDS011;39735;51.432;5.482;2023-02-18T12:40:03;23.05;;;5.60;;
53833;SDS011;39735;51.432;5.482;2023-02-18T12:50:35;35.72;;;5.45;;
53833;SDS011;39735;51.432;5.482;2023-02-18T13:14:22;19.00;;;5.45;;
53833;SDS011;39735;51.432;5.482;2023-02-18T13:17:00;14.30;;;4.28;;
53833;SDS011;39735;51.432;5.482;2023-02-18T13:19:29;13.45;;;3.97;;
53833;SDS011;39735;51.432;5.482;2023-02-18T13:21:58;11.63;;;4.50;;
53833;SDS011;39735;51.432;5.482;2023-02-18T13:24:36;15.82;;;4.30;;
53833;SDS011;39735;51.432;5.482;2023-02-18T13:27:13;23.35;;;6.30;;
53833;SDS011;39735;51.432;5.482;2023-02-18T13:40:37;24.70;;;5.75;;
53833;SDS011;39735;51.432;5.482;2023-02-18T13:46:03;17.42;;;5.97;;
53833;SDS011;39735;51.432;5.482;2023-02-18T13:48:41;25.27;;;5.63;;
53833;SDS011;39735;51.432;5.482;2023-02-18T13:51:07;28.65;;;6.15;;
53833;SDS011;39735;51.432;5.482;2023-02-18T13:53:36;15.95;;;5.80;;
53833;SDS011;39735;51.432;5.482;2023-02-18T13:58:51;37.65;;;5.63;;
53833;SDS011;39735;51.432;5.482;2023-02-18T14:01:45;16.45;;;5.35;;
53833;SDS011;39735;51.432;5.482;2023-02-18T14:12:59;17.10;;;6.50;;
53833;SDS011;39735;51.432;5.482;2023-02-18T14:26:16;45.15;;;9.82;;
53833;SDS011;39735;51.432;5.482;2023-02-18T14:34:21;20.55;;;7.90;;
53833;SDS011;39735;51.432;5.482;2023-02-18T14:49:38;39.67;;;11.23;;
53833;SDS011;39735;51.432;5.482;2023-02-18T14:55:07;35.72;;;8.65;;
53833;SDS011;39735;51.432;5.482;2023-02-18T15:00:25;32.30;;;10.00;;
53833;SDS011;39735;51.432;5.482;2023-02-18T15:02:56;20.17;;;9.55;;
53833;SDS011;39735;51.432;5.482;2023-02-18T15:05:23;28.42;;;9.27;;
53833;SDS011;39735;51.432;5.482;2023-02-18T15:07:53;31.98;;;9.57;;
53833;SDS011;39735;51.432;5.482;2023-02-18T15:10:48;25.60;;;9.75;;
53833;SDS011;39735;51.432;5.482;2023-02-18T15:13:29;16.90;;;8.30;;
53833;SDS011;39735;51.432;5.482;2023-02-18T15:16:00;31.13;;;8.98;;
53833;SDS011;39735;51.432;5.482;2023-02-18T15:18:29;21.38;;;10.27;;
53833;SDS011;39735;51.432;5.482;2023-02-18T15:21:07;42.40;;;11.15;;
53833;SDS011;39735;51.432;5.482;2023-02-18T15:23:34;29.77;;;9.40;;
53833;SDS011;39735;51.432;5.482;2023-02-18T15:26:01;30.08;;;9.40;;
53833;SDS011;39735;51.432;5.482;2023-02-18T15:28:28;23.63;;;10.38;;
53833;SDS011;39735;51.432;5.482;2023-02-18T15:30:59;25.27;;;9.23;;
53833;SDS011;39735;51.432;5.482;2023-02-18T15:33:27;33.67;;;12.43;;
53833;SDS011;39735;51.432;5.482;2023-02-18T15:36:02;42.88;;;10.65;;
53833;SDS011;39735;51.432;5.482;2023-02-18T15:38:29;20.67;;;11.82;;
53833;SDS011;39735;51.432;5.482;2023-02-18T15:40:55;28.48;;;10.85;;
53833;SDS011;39735;51.432;5.482;2023-02-18T15:43:21;22.08;;;10.75;;
53833;SDS011;39735;51.432;5.482;2023-02-18T15:45:48;29.45;;;12.27;;
53833;SDS011;39735;51.432;5.482;2023-02-18T15:50:57;37.45;;;12.05;;
53833;SDS011;39735;51.432;5.482;2023-02-18T15:53:28;39.00;;;14.55;;
53833;SDS011;39735;51.432;5.482;2023-02-18T15:55:54;23.08;;;12.43;;
53833;SDS011;39735;51.432;5.482;2023-02-18T15:58:30;23.50;;;12.63;;
53833;SDS011;39735;51.432;5.482;2023-02-18T16:00:57;36.58;;;12.07;;
53833;SDS011;39735;51.432;5.482;2023-02-18T16:03:31;30.70;;;14.13;;
53833;SDS011;39735;51.432;5.482;2023-02-18T16:09:12;36.30;;;16.38;;
53833;SDS011;39735;51.432;5.482;2023-02-18T16:11:43;44.10;;;16.15;;
53833;SDS011;39735;51.432;5.482;2023-02-18T16:14:25;30.77;;;14.93;;
53833;SDS011;39735;51.432;5.482;2023-02-18T16:16:58;39.45;;;17.42;;
53833;SDS011;39735;51.432;5.482;2023-02-18T16:19:29;32.33;;;14.63;;
53833;SDS011;39735;51.432;5.482;2023-02-18T16:21:56;27.08;;;15.52;;
53833;SDS011;39735;51.432;5.482;2023-02-18T16:24:22;31.95;;;17.25;;
53833;SDS011;39735;51.432;5.482;2023-02-18T16:26:50;37.72;;;19.63;;
53833;SDS011;39735;51.432;5.482;2023-02-18T16:29:21;39.05;;;19.50;;
53833;SDS011;39735;51.432;5.482;2023-02-18T16:31:48;54.15;;;23.17;;
53833;SDS011;39735;51.432;5.482;2023-02-18T16:34:14;38.03;;;21.48;;
53833;SDS011;39735;51.432;5.482;2023-02-18T16:36:39;34.17;;;22.88;;
53833;SDS011;39735;51.432;5.482;2023-02-18T16:39:24;30.48;;;24.15;;
53833;SDS011;39735;51.432;5.482;2023-02-18T16:41:51;42.88;;;23.58;;
53833;SDS011;39735;51.432;5.482;2023-02-18T16:44:17;32.65;;;24.48;;
53833;SDS011;39735;51.432;5.482;2023-02-18T16:46:42;28.58;;;22.90;;
53833;SDS011;39735;51.432;5.482;2023-02-18T16:49:07;40.17;;;25.80;;
53833;SDS011;39735;51.432;5.482;2023-02-18T16:51:35;43.08;;;20.90;;
53833;SDS011;39735;51.432;5.482;2023-02-18T16:54:00;42.42;;;23.17;;
53833;SDS011;39735;51.432;5.482;2023-02-18T16:56:28;35.05;;;18.33;;
53833;SDS011;39735;51.432;5.482;2023-02-18T16:58:56;23.63;;;14.65;;
53833;SDS011;39735;51.432;5.482;2023-02-18T17:01:40;29.67;;;12.88;;
53833;SDS011;39735;51.432;5.482;2023-02-18T17:04:11;30.60;;;12.18;;
53833;SDS011;39735;51.432;5.482;2023-02-18T17:06:41;25.92;;;14.02;;
53833;SDS011;39735;51.432;5.482;2023-02-18T17:09:20;20.95;;;11.80;;
53833;SDS011;39735;51.432;5.482;2023-02-18T17:11:48;24.42;;;12.20;;
53833;SDS011;39735;51.432;5.482;2023-02-18T17:14:15;36.83;;;14.45;;
53833;SDS011;39735;51.432;5.482;2023-02-18T17:16:42;22.67;;;11.63;;
53833;SDS011;39735;51.432;5.482;2023-02-18T17:19:11;14.35;;;9.57;;
53833;SDS011;39735;51.432;5.482;2023-02-18T17:21:36;19.92;;;10.07;;
53833;SDS011;39735;51.432;5.482;2023-02-18T17:24:02;31.85;;;13.75;;
53833;SDS011;39735;51.432;5.482;2023-02-18T17:26:28;22.80;;;11.02;;
53833;SDS011;39735;51.432;5.482;2023-02-18T17:28:54;19.48;;;11.23;;
53833;SDS011;39735;51.432;5.482;2023-02-18T17:31:24;26.83;;;12.95;;
53833;SDS011;39735;51.432;5.482;2023-02-18T17:33:51;25.23;;;11.15;;
53833;SDS011;39735;51.432;5.482;2023-02-18T17:36:17;31.33;;;11.98;;